createdAt,value
2022-12-03T00:00:31.804Z,35.20
2022-12-03T00:01:31.721Z,34.10
2022-12-03T00:02:31.714Z,33.90
2022-12-03T00:03:31.727Z,35.00
2022-12-03T00:04:31.640Z,34.10
2022-12-03T00:05:31.621Z,34.40
2022-12-03T00:06:34.470Z,34.80
2022-12-03T00:07:31.680Z,33.00
2022-12-03T00:08:31.619Z,34.00
2022-12-03T00:09:31.575Z,35.00
2022-12-03T00:10:31.564Z,33.40
2022-12-03T00:11:31.536Z,31.70
2022-12-03T00:12:31.553Z,32.90
2022-12-03T00:13:31.553Z,35.00
2022-12-03T00:14:31.534Z,34.40
2022-12-03T00:15:31.571Z,33.00
2022-12-03T00:16:31.520Z,33.90
2022-12-03T00:17:31.478Z,33.20
2022-12-03T00:18:31.479Z,33.80
2022-12-03T00:19:31.491Z,34.50
2022-12-03T00:20:31.454Z,35.10
2022-12-03T00:21:31.460Z,34.80
2022-12-03T00:22:31.457Z,33.80
2022-12-03T00:23:31.433Z,33.50
2022-12-03T00:24:31.451Z,32.20
2022-12-03T00:25:31.410Z,32.90
2022-12-03T00:26:31.376Z,33.00
2022-12-03T00:27:31.358Z,34.10
2022-12-03T00:28:31.383Z,33.90
2022-12-03T00:29:31.339Z,34.70
2022-12-03T00:30:31.367Z,34.10
2022-12-03T00:31:31.394Z,33.70
2022-12-03T00:32:31.355Z,34.80
2022-12-03T00:33:31.322Z,34.40
2022-12-03T00:34:31.743Z,34.20
2022-12-03T00:35:36.301Z,33.70
2022-12-03T00:36:31.283Z,35.10
2022-12-03T00:37:31.261Z,32.40
2022-12-03T00:38:31.254Z,33.30
2022-12-03T00:39:31.283Z,33.70
2022-12-03T00:40:31.227Z,32.10
2022-12-03T00:41:31.237Z,32.90
2022-12-03T00:42:31.236Z,33.00
2022-12-03T00:43:31.224Z,33.60
2022-12-03T00:44:31.178Z,33.50
2022-12-03T00:45:31.190Z,31.50
2022-12-03T00:46:31.303Z,33.20
2022-12-03T00:47:31.145Z,32.70
2022-12-03T00:48:31.133Z,34.50
2022-12-03T00:49:31.159Z,32.80
2022-12-03T00:50:31.137Z,33.10
2022-12-03T00:51:31.144Z,33.90
2022-12-03T00:52:31.106Z,33.60
2022-12-03T00:53:31.083Z,32.70
2022-12-03T00:54:32.230Z,33.40
2022-12-03T00:55:31.098Z,33.40
2022-12-03T00:56:31.085Z,33.20
2022-12-03T00:57:31.083Z,34.10
2022-12-03T00:58:31.082Z,32.60
2022-12-03T00:59:31.033Z,31.70
2022-12-03T01:00:31.012Z,33.00
2022-12-03T01:01:31.044Z,31.90
2022-12-03T01:02:31.023Z,33.60
2022-12-03T01:03:30.994Z,32.00
2022-12-03T01:04:31.056Z,31.90
2022-12-03T01:05:30.989Z,31.40
2022-12-03T01:06:30.944Z,31.80
2022-12-03T01:07:31.041Z,32.50
2022-12-03T01:08:30.993Z,31.70
2022-12-03T01:09:30.958Z,32.60
2022-12-03T01:10:30.916Z,31.80
2022-12-03T01:11:30.942Z,31.70
2022-12-03T01:12:30.884Z,30.90
2022-12-03T01:13:30.927Z,31.00
2022-12-03T01:14:30.936Z,31.70
2022-12-03T01:15:30.870Z,31.10
2022-12-03T01:16:30.903Z,31.50
2022-12-03T01:17:30.859Z,31.10
2022-12-03T01:18:30.847Z,31.50
2022-12-03T01:19:30.843Z,32.70
2022-12-03T01:20:30.824Z,34.00
2022-12-03T01:21:30.791Z,32.50
2022-12-03T01:22:30.773Z,31.20
2022-12-03T01:23:30.771Z,32.00
2022-12-03T01:24:30.856Z,31.30
2022-12-03T01:25:30.769Z,32.60
2022-12-03T01:26:30.792Z,32.40
2022-12-03T01:27:30.773Z,30.70
2022-12-03T01:28:30.769Z,32.80
2022-12-03T01:29:30.749Z,35.00
2022-12-03T01:30:30.718Z,33.60
2022-12-03T01:31:30.736Z,35.00
2022-12-03T01:32:30.684Z,34.60
2022-12-03T01:33:30.747Z,33.00
2022-12-03T01:34:30.652Z,34.00
2022-12-03T01:35:30.659Z,33.00
2022-12-03T01:36:30.740Z,33.80
2022-12-03T01:37:30.676Z,32.10
2022-12-03T01:38:30.678Z,33.00
2022-12-03T01:39:30.688Z,32.60
2022-12-03T01:40:30.571Z,32.30
2022-12-03T01:41:30.664Z,32.80
2022-12-03T01:42:30.577Z,32.80
2022-12-03T01:43:30.627Z,34.40
2022-12-03T01:44:30.555Z,33.40
2022-12-03T01:45:30.584Z,32.20
2022-12-03T01:46:30.632Z,32.30
2022-12-03T01:47:30.543Z,32.00
2022-12-03T01:48:30.572Z,32.40
2022-12-03T01:49:30.587Z,32.40
2022-12-03T01:50:30.474Z,34.20
2022-12-03T01:51:30.478Z,32.10
2022-12-03T01:52:30.529Z,30.40
2022-12-03T01:53:30.517Z,34.00
2022-12-03T01:54:30.457Z,34.10
2022-12-03T01:55:30.424Z,33.40
2022-12-03T01:56:30.428Z,33.60
2022-12-03T01:57:30.535Z,32.80
2022-12-03T01:58:30.404Z,32.00
2022-12-03T01:59:30.402Z,31.50
2022-12-03T02:00:30.363Z,33.00
2022-12-03T02:01:30.377Z,33.60
2022-12-03T02:02:30.364Z,33.50
2022-12-03T02:03:30.357Z,33.10
2022-12-03T02:04:30.425Z,32.00
2022-12-03T02:05:30.314Z,33.40
2022-12-03T02:06:30.362Z,32.70
2022-12-03T02:07:30.338Z,30.80
2022-12-03T02:08:30.292Z,32.60
2022-12-03T02:09:30.301Z,33.90
2022-12-03T02:10:30.329Z,32.90
2022-12-03T02:11:30.416Z,32.50
2022-12-03T02:12:30.245Z,33.30
2022-12-03T02:13:30.239Z,34.30
2022-12-03T02:14:30.242Z,32.90
2022-12-03T02:15:30.259Z,31.70
2022-12-03T02:16:30.329Z,33.30
2022-12-03T02:17:30.276Z,34.10
2022-12-03T02:18:30.177Z,31.50
2022-12-03T02:19:30.178Z,32.40
2022-12-03T02:20:30.180Z,31.10
2022-12-03T02:21:30.245Z,32.80
2022-12-03T02:22:30.153Z,32.70
2022-12-03T02:23:30.159Z,33.20
2022-12-03T02:24:30.164Z,31.50
2022-12-03T02:25:30.116Z,32.30
2022-12-03T02:26:30.098Z,31.40
2022-12-03T02:27:30.128Z,33.20
2022-12-03T02:28:30.083Z,33.10
2022-12-03T02:29:30.069Z,31.60
2022-12-03T02:30:30.091Z,32.40
2022-12-03T02:31:30.107Z,33.60
2022-12-03T02:32:30.100Z,33.00
2022-12-03T02:33:30.073Z,31.90
2022-12-03T02:34:30.059Z,31.90
2022-12-03T02:35:30.020Z,31.10
2022-12-03T02:36:30.097Z,31.50
2022-12-03T02:37:30.035Z,32.30
2022-12-03T02:38:30.003Z,32.90
2022-12-03T02:39:29.993Z,32.90
2022-12-03T02:40:30.002Z,31.40
2022-12-03T02:41:29.930Z,32.80
2022-12-03T02:42:29.980Z,31.80
2022-12-03T02:43:29.962Z,31.50
2022-12-03T02:44:29.946Z,31.60
2022-12-03T02:45:29.873Z,30.60
2022-12-03T02:46:29.966Z,32.20
2022-12-03T02:47:29.899Z,31.20
2022-12-03T02:48:29.906Z,33.50
2022-12-03T02:49:29.928Z,30.20
2022-12-03T02:50:29.828Z,30.40
2022-12-03T02:51:29.820Z,32.20
2022-12-03T02:52:29.894Z,30.50
2022-12-03T02:53:29.805Z,31.00
2022-12-03T02:54:29.914Z,29.90
2022-12-03T02:55:36.385Z,30.30
2022-12-03T02:56:30.763Z,31.40
2022-12-03T02:57:29.814Z,32.20
2022-12-03T02:58:29.779Z,31.50
2022-12-03T02:59:29.757Z,32.10
2022-12-03T03:00:29.774Z,31.40
2022-12-03T03:01:29.825Z,31.60
2022-12-03T03:02:29.770Z,29.90
2022-12-03T03:03:29.754Z,30.70
2022-12-03T03:04:29.698Z,29.70
2022-12-03T03:05:29.677Z,31.00
2022-12-03T03:06:29.680Z,31.60
2022-12-03T03:07:29.693Z,32.00
2022-12-03T03:08:29.657Z,30.40
2022-12-03T03:09:29.722Z,30.40
2022-12-03T03:10:29.647Z,32.40
2022-12-03T03:11:29.656Z,31.20
2022-12-03T03:12:29.616Z,31.50
2022-12-03T03:13:29.591Z,31.60
2022-12-03T03:14:29.599Z,30.90
2022-12-03T03:15:29.597Z,31.50
2022-12-03T03:16:29.608Z,31.30
2022-12-03T03:17:29.526Z,31.80
2022-12-03T03:18:29.579Z,31.70
2022-12-03T03:19:29.572Z,33.70
2022-12-03T03:20:29.561Z,33.10
2022-12-03T03:21:29.529Z,33.20
2022-12-03T03:22:29.580Z,29.60
2022-12-03T03:23:29.483Z,31.40
2022-12-03T03:24:29.500Z,29.60
2022-12-03T03:25:29.466Z,30.50
2022-12-03T03:26:29.465Z,30.90
2022-12-03T03:27:29.437Z,30.40
2022-12-03T03:28:29.433Z,31.70
2022-12-03T03:29:29.425Z,32.20
2022-12-03T03:30:29.436Z,30.30
2022-12-03T03:31:29.512Z,31.40
2022-12-03T03:32:29.390Z,29.50
2022-12-03T03:33:29.416Z,30.60
2022-12-03T03:34:29.410Z,29.60
2022-12-03T03:35:29.363Z,29.50
2022-12-03T03:36:29.345Z,32.50
2022-12-03T03:37:29.352Z,31.10
2022-12-03T03:38:29.368Z,32.60
2022-12-03T03:39:29.378Z,31.80
2022-12-03T03:40:29.299Z,31.50
2022-12-03T03:41:29.306Z,29.80
2022-12-03T03:42:29.273Z,31.40
2022-12-03T03:43:29.286Z,31.60
2022-12-03T03:44:29.291Z,30.40
2022-12-03T03:45:29.811Z,32.20
2022-12-03T03:46:29.331Z,32.60
2022-12-03T03:47:29.217Z,31.80
2022-12-03T03:48:29.221Z,30.20
2022-12-03T03:49:29.205Z,29.80
2022-12-03T03:50:29.190Z,33.00
2022-12-03T03:51:29.229Z,31.60
2022-12-03T03:52:29.196Z,31.90
2022-12-03T03:53:29.174Z,31.20
2022-12-03T03:54:29.152Z,30.30
2022-12-03T03:55:29.164Z,32.00
2022-12-03T03:56:29.302Z,32.20
2022-12-03T03:57:29.277Z,32.90
2022-12-03T03:58:29.120Z,33.40
2022-12-03T03:59:29.126Z,32.00
2022-12-03T04:00:29.085Z,31.40
2022-12-03T04:01:29.127Z,29.50
2022-12-03T04:02:29.049Z,31.20
2022-12-03T04:03:29.078Z,32.80
2022-12-03T04:04:29.092Z,32.50
2022-12-03T04:05:29.060Z,32.70
2022-12-03T04:06:29.051Z,32.30
2022-12-03T04:07:29.110Z,31.50
2022-12-03T04:08:29.034Z,32.50
2022-12-03T04:09:29.020Z,33.70
2022-12-03T04:10:29.024Z,32.00
2022-12-03T04:11:28.968Z,31.10
2022-12-03T04:12:28.966Z,31.60
2022-12-03T04:13:28.960Z,30.10
2022-12-03T04:14:28.965Z,31.00
2022-12-03T04:15:28.928Z,33.00
2022-12-03T04:16:29.016Z,31.40
2022-12-03T04:17:28.898Z,31.30
2022-12-03T04:18:28.922Z,31.70
2022-12-03T04:19:28.906Z,31.80
2022-12-03T04:20:28.873Z,31.50
2022-12-03T04:21:28.887Z,31.20
2022-12-03T04:22:28.885Z,31.50
2022-12-03T04:23:31.044Z,32.10
2022-12-03T04:24:28.896Z,32.90
2022-12-03T04:25:28.860Z,30.30
2022-12-03T04:26:28.853Z,30.50
2022-12-03T04:27:28.783Z,32.10
2022-12-03T04:28:28.777Z,32.30
2022-12-03T04:29:28.798Z,30.50
2022-12-03T04:30:28.866Z,30.40
2022-12-03T04:31:28.808Z,30.00
2022-12-03T04:32:28.778Z,31.50
2022-12-03T04:33:28.809Z,29.20
2022-12-03T04:34:28.754Z,30.00
2022-12-03T04:35:28.762Z,32.30
2022-12-03T04:36:28.756Z,29.80
2022-12-03T04:37:28.684Z,30.70
2022-12-03T04:38:28.691Z,30.40
2022-12-03T04:39:28.664Z,30.60
2022-12-03T04:40:28.674Z,30.50
2022-12-03T04:41:28.697Z,32.80
2022-12-03T04:42:28.685Z,31.00
2022-12-03T04:43:28.620Z,30.90
2022-12-03T04:44:28.627Z,30.30
2022-12-03T04:45:28.596Z,30.70
2022-12-03T04:46:28.671Z,29.80
2022-12-03T04:47:28.592Z,32.10
2022-12-03T04:48:28.563Z,31.30
2022-12-03T04:49:28.589Z,31.40
2022-12-03T04:50:28.542Z,31.50
2022-12-03T04:51:28.533Z,32.40
2022-12-03T04:52:28.526Z,31.50
2022-12-03T04:53:28.578Z,30.40
2022-12-03T04:54:28.535Z,31.50
2022-12-03T04:55:28.536Z,30.30
2022-12-03T04:56:28.479Z,30.40
2022-12-03T04:57:28.477Z,31.70
2022-12-03T04:58:28.477Z,32.20
2022-12-03T04:59:28.458Z,31.70
2022-12-03T05:00:28.429Z,30.90
2022-12-03T05:01:28.498Z,31.70
2022-12-03T05:02:28.589Z,30.60
2022-12-03T05:03:28.464Z,29.50
2022-12-03T05:04:28.427Z,30.90
2022-12-03T05:05:28.423Z,31.30
2022-12-03T05:06:28.369Z,31.30
2022-12-03T05:07:28.435Z,30.20
2022-12-03T05:08:28.423Z,32.20
2022-12-03T05:09:28.398Z,30.50
2022-12-03T05:10:28.335Z,29.80
2022-12-03T05:11:28.317Z,30.80
2022-12-03T05:12:28.301Z,30.40
2022-12-03T05:13:28.335Z,30.90
2022-12-03T05:14:28.386Z,31.10
2022-12-03T05:15:28.285Z,30.50
2022-12-03T05:16:28.355Z,30.10
2022-12-03T05:17:28.303Z,29.90
2022-12-03T05:18:28.351Z,32.20
2022-12-03T05:19:28.289Z,30.30
2022-12-03T05:20:28.223Z,29.40
2022-12-03T05:21:28.245Z,29.40
2022-12-03T05:22:28.224Z,32.00
2022-12-03T05:23:28.260Z,30.50
2022-12-03T05:24:28.224Z,32.00
2022-12-03T05:25:28.186Z,31.50
2022-12-03T05:26:28.171Z,32.20
2022-12-03T05:27:28.176Z,30.10
2022-12-03T05:28:28.148Z,30.00
2022-12-03T05:29:28.158Z,30.20
2022-12-03T05:30:28.320Z,30.90
2022-12-03T05:31:28.273Z,30.80
2022-12-03T05:32:28.126Z,30.90
2022-12-03T05:33:28.213Z,30.40
2022-12-03T05:34:28.136Z,30.90
2022-12-03T05:35:28.099Z,29.90
2022-12-03T05:36:28.120Z,30.90
2022-12-03T05:37:28.045Z,29.70
2022-12-03T05:38:28.040Z,30.10
2022-12-03T05:39:28.058Z,29.80
2022-12-03T05:40:28.035Z,28.40
2022-12-03T05:41:28.003Z,30.20
2022-12-03T05:42:28.007Z,28.00
2022-12-03T05:43:27.972Z,30.80
2022-12-03T05:44:27.988Z,29.90
2022-12-03T05:45:28.020Z,28.40
2022-12-03T05:46:28.046Z,30.60
2022-12-03T05:47:27.930Z,30.80
2022-12-03T05:48:27.949Z,31.80
2022-12-03T05:49:27.995Z,29.90
2022-12-03T05:50:27.914Z,30.10
2022-12-03T05:51:27.934Z,30.80
2022-12-03T05:52:28.012Z,30.20
2022-12-03T05:53:27.883Z,31.00
2022-12-03T05:54:27.962Z,30.00
2022-12-03T05:55:27.855Z,29.30
2022-12-03T05:56:27.835Z,28.70
2022-12-03T05:57:35.664Z,27.30
2022-12-03T05:58:27.869Z,29.00
2022-12-03T05:59:27.866Z,29.70
2022-12-03T06:00:27.817Z,30.60
2022-12-03T06:01:27.813Z,28.90
2022-12-03T06:02:48.949Z,28.20
2022-12-03T06:03:28.055Z,29.30
2022-12-03T06:04:27.738Z,28.20
2022-12-03T06:05:27.772Z,29.60
2022-12-03T06:06:27.701Z,29.10
2022-12-03T06:07:27.765Z,30.70
2022-12-03T06:08:27.713Z,29.20
2022-12-03T06:09:27.699Z,29.00
2022-12-03T06:10:27.687Z,29.60
2022-12-03T06:11:27.677Z,28.80
2022-12-03T06:12:27.636Z,29.30
2022-12-03T06:13:27.640Z,29.50
2022-12-03T06:14:27.616Z,28.00
2022-12-03T06:15:27.611Z,28.00
2022-12-03T06:16:27.676Z,29.80
2022-12-03T06:17:27.619Z,28.30
2022-12-03T06:18:27.578Z,28.90
2022-12-03T06:19:27.580Z,28.60
2022-12-03T06:20:27.559Z,28.10
2022-12-03T06:21:27.532Z,28.50
2022-12-03T06:22:27.601Z,28.00
2022-12-03T06:23:27.529Z,27.70
2022-12-03T06:24:27.532Z,28.00
2022-12-03T06:25:27.533Z,29.40
2022-12-03T06:26:27.545Z,28.20
2022-12-03T06:27:27.503Z,29.20
2022-12-03T06:28:27.543Z,28.70
2022-12-03T06:29:27.472Z,28.20
2022-12-03T06:30:27.479Z,26.30
2022-12-03T06:31:27.518Z,27.30
2022-12-03T06:32:27.438Z,28.50
2022-12-03T06:33:27.442Z,29.30
2022-12-03T06:34:27.453Z,28.30
2022-12-03T06:35:27.421Z,27.20
2022-12-03T06:36:27.402Z,27.80
2022-12-03T06:37:27.382Z,27.90
2022-12-03T06:38:27.419Z,28.50
2022-12-03T06:39:27.390Z,27.20
2022-12-03T06:40:27.363Z,27.10
2022-12-03T06:41:27.350Z,27.10
2022-12-03T06:42:27.344Z,28.00
2022-12-03T06:43:27.323Z,28.00
2022-12-03T06:44:27.336Z,27.30
2022-12-03T06:45:27.305Z,26.80
2022-12-03T06:46:27.381Z,26.30
2022-12-03T06:47:27.284Z,26.90
2022-12-03T06:48:27.301Z,27.50
2022-12-03T06:49:27.290Z,26.80
2022-12-03T06:50:27.252Z,26.70
2022-12-03T06:51:27.261Z,24.90
2022-12-03T06:52:27.234Z,27.70
2022-12-03T06:53:27.211Z,28.20
2022-12-03T06:54:27.220Z,28.50
2022-12-03T06:55:27.235Z,27.90
2022-12-03T06:56:32.846Z,28.80
2022-12-03T06:57:28.178Z,27.50
2022-12-03T06:58:27.180Z,27.10
2022-12-03T06:59:27.179Z,27.20
2022-12-03T07:00:27.140Z,26.80
2022-12-03T07:01:27.197Z,27.50
2022-12-03T07:02:27.209Z,24.90
2022-12-03T07:03:27.182Z,26.40
2022-12-03T07:04:27.114Z,26.50
2022-12-03T07:05:27.109Z,27.20
2022-12-03T07:06:27.069Z,26.90
2022-12-03T07:07:27.141Z,26.00
2022-12-03T07:08:27.057Z,25.70
2022-12-03T07:09:27.068Z,26.30
2022-12-03T07:10:27.047Z,28.30
2022-12-03T07:11:27.021Z,27.90
2022-12-03T07:12:27.015Z,26.50
2022-12-03T07:13:27.006Z,27.20
2022-12-03T07:14:27.003Z,27.50
2022-12-03T07:15:27.006Z,26.50
2022-12-03T07:16:27.101Z,26.50
2022-12-03T07:17:26.973Z,25.90
2022-12-03T07:18:26.971Z,27.20
2022-12-03T07:19:32.365Z,27.60
2022-12-03T07:20:27.936Z,26.30
2022-12-03T07:21:26.942Z,27.00
2022-12-03T07:22:26.921Z,26.40
2022-12-03T07:23:26.917Z,26.90
2022-12-03T07:24:26.915Z,27.30
2022-12-03T07:25:26.885Z,25.90
2022-12-03T07:26:26.919Z,28.70
2022-12-03T07:27:26.851Z,28.30
2022-12-03T07:28:26.875Z,27.80
2022-12-03T07:29:26.852Z,27.90
2022-12-03T07:30:26.825Z,27.90
2022-12-03T07:31:26.850Z,27.50
2022-12-03T07:32:26.793Z,27.80
2022-12-03T07:33:26.783Z,28.80
2022-12-03T07:34:26.810Z,27.50
2022-12-03T07:35:26.793Z,27.90
2022-12-03T07:36:26.768Z,28.30
2022-12-03T07:37:26.852Z,27.30
2022-12-03T07:38:26.775Z,28.10
2022-12-03T07:39:26.751Z,26.60
2022-12-03T07:40:26.728Z,27.10
2022-12-03T07:41:27.011Z,27.30
2022-12-03T07:42:26.696Z,27.60
2022-12-03T07:43:26.691Z,28.20
2022-12-03T07:44:26.674Z,27.20
2022-12-03T07:45:26.703Z,28.50
2022-12-03T07:46:26.718Z,27.50
2022-12-03T07:47:26.671Z,26.80
2022-12-03T07:48:26.627Z,27.90
2022-12-03T07:49:26.649Z,27.60
2022-12-03T07:50:26.756Z,27.20
2022-12-03T07:51:32.013Z,28.00
2022-12-03T07:52:27.612Z,29.00
2022-12-03T07:53:26.603Z,28.50
2022-12-03T07:54:26.571Z,28.70
2022-12-03T07:55:26.569Z,28.60
2022-12-03T07:56:26.544Z,28.40
2022-12-03T07:57:26.532Z,26.40
2022-12-03T07:58:26.519Z,25.90
2022-12-03T07:59:26.527Z,27.90
2022-12-03T08:00:26.539Z,27.20
2022-12-03T08:01:26.580Z,28.00
2022-12-03T08:02:26.524Z,26.90
2022-12-03T08:03:26.478Z,28.40
2022-12-03T08:04:26.482Z,28.10
2022-12-03T08:05:26.479Z,28.60
2022-12-03T08:06:26.459Z,26.70
2022-12-03T08:07:26.466Z,27.20
2022-12-03T08:08:26.458Z,27.90
2022-12-03T08:09:26.410Z,26.90
2022-12-03T08:10:26.464Z,27.10
2022-12-03T08:11:26.394Z,26.90
2022-12-03T08:12:26.367Z,26.60
2022-12-03T08:13:26.367Z,26.90
2022-12-03T08:14:26.365Z,28.20
2022-12-03T08:15:26.344Z,27.10
2022-12-03T08:16:26.467Z,28.00
2022-12-03T08:17:26.325Z,26.30
2022-12-03T08:18:26.384Z,27.40
2022-12-03T08:19:26.293Z,25.90
2022-12-03T08:20:26.305Z,25.00
2022-12-03T08:21:26.329Z,25.80
2022-12-03T08:22:26.270Z,27.40
2022-12-03T08:23:26.322Z,26.80
2022-12-03T08:24:26.275Z,27.90
2022-12-03T08:25:26.269Z,26.70
2022-12-03T08:26:26.236Z,25.70
2022-12-03T08:27:26.245Z,25.00
2022-12-03T08:28:26.211Z,26.20
2022-12-03T08:29:26.234Z,27.50
2022-12-03T08:30:26.306Z,25.70
2022-12-03T08:31:32.749Z,26.80
2022-12-03T08:32:27.196Z,25.40
2022-12-03T08:33:26.164Z,26.30
2022-12-03T08:34:26.139Z,26.80
2022-12-03T08:35:26.182Z,25.70
2022-12-03T08:36:26.163Z,25.50
2022-12-03T08:37:26.104Z,25.90
2022-12-03T08:38:26.112Z,25.50
2022-12-03T08:39:26.076Z,24.90
2022-12-03T08:40:26.089Z,25.30
2022-12-03T08:41:26.099Z,25.30
2022-12-03T08:42:26.055Z,25.50
2022-12-03T08:43:26.064Z,24.90
2022-12-03T08:44:26.050Z,24.80
2022-12-03T08:45:26.105Z,25.60
2022-12-03T08:46:26.124Z,24.50
2022-12-03T08:47:26.002Z,24.90
2022-12-03T08:48:26.076Z,24.80
2022-12-03T08:49:26.001Z,25.20
2022-12-03T08:50:25.990Z,24.50
2022-12-03T08:51:25.950Z,24.40
2022-12-03T08:52:25.961Z,25.90
2022-12-03T08:53:25.949Z,25.10
2022-12-03T08:54:25.935Z,25.00
2022-12-03T08:55:25.940Z,25.70
2022-12-03T08:56:25.920Z,24.70
2022-12-03T08:57:25.890Z,25.80
2022-12-03T08:58:25.910Z,24.90
2022-12-03T08:59:25.864Z,24.60
2022-12-03T09:00:25.884Z,24.30
2022-12-03T09:01:25.944Z,24.70
2022-12-03T09:02:26.188Z,25.70
2022-12-03T09:03:25.828Z,25.10
2022-12-03T09:04:25.903Z,25.40
2022-12-03T09:05:25.810Z,24.20
2022-12-03T09:06:25.852Z,24.50
2022-12-03T09:07:25.839Z,23.80
2022-12-03T09:08:25.776Z,24.70
2022-12-03T09:09:25.843Z,24.20
2022-12-03T09:10:25.761Z,23.70
2022-12-03T09:11:25.763Z,23.10
2022-12-03T09:12:25.744Z,25.10
2022-12-03T09:13:25.711Z,23.40
2022-12-03T09:14:25.791Z,23.80
2022-12-03T09:15:25.709Z,25.00
2022-12-03T09:16:25.748Z,24.40
2022-12-03T09:17:25.711Z,24.40
2022-12-03T09:18:25.666Z,25.50
2022-12-03T09:19:25.673Z,25.20
2022-12-03T09:20:25.640Z,25.30
2022-12-03T09:21:25.670Z,26.40
2022-12-03T09:22:25.645Z,25.40
2022-12-03T09:23:25.656Z,24.60
2022-12-03T09:24:25.595Z,24.50
2022-12-03T09:25:25.604Z,24.70
2022-12-03T09:26:25.587Z,24.80
2022-12-03T09:27:25.568Z,24.80
2022-12-03T09:28:25.584Z,26.30
2022-12-03T09:29:25.539Z,24.10
2022-12-03T09:30:25.559Z,25.30
2022-12-03T09:31:25.605Z,25.10
2022-12-03T09:32:25.623Z,26.60
2022-12-03T09:33:25.523Z,24.00
2022-12-03T09:34:25.504Z,24.60
2022-12-03T09:35:25.514Z,26.10
2022-12-03T09:36:25.527Z,25.40
2022-12-03T09:37:25.489Z,25.70
2022-12-03T09:38:25.471Z,26.10
2022-12-03T09:39:25.452Z,24.30
2022-12-03T09:40:25.447Z,26.40
2022-12-03T09:41:25.422Z,26.00
2022-12-03T09:42:25.454Z,26.60
2022-12-03T09:43:33.491Z,25.40
2022-12-03T09:44:26.384Z,26.40
2022-12-03T09:45:25.397Z,25.80
2022-12-03T09:46:25.392Z,27.10
2022-12-03T09:47:25.369Z,27.30
2022-12-03T09:48:25.343Z,27.20
2022-12-03T09:49:25.332Z,26.30
2022-12-03T09:50:25.339Z,27.60
2022-12-03T09:51:25.314Z,27.60
2022-12-03T09:52:25.392Z,28.30
2022-12-03T09:53:25.290Z,27.60
2022-12-03T09:54:25.300Z,26.10
2022-12-03T09:55:25.271Z,27.20
2022-12-03T09:56:25.285Z,26.40
2022-12-03T09:57:25.329Z,26.80
2022-12-03T09:58:25.249Z,27.90
2022-12-03T09:59:25.235Z,26.00
2022-12-03T10:00:25.211Z,26.20
2022-12-03T10:01:29.979Z,28.10
2022-12-03T10:02:26.202Z,26.40
2022-12-03T10:03:29.653Z,27.00
2022-12-03T10:04:25.261Z,27.20
2022-12-03T10:05:26.014Z,26.90
2022-12-03T10:06:25.153Z,28.60
2022-12-03T10:07:25.296Z,27.10
2022-12-03T10:08:29.396Z,27.90
2022-12-03T10:09:26.120Z,27.30
2022-12-03T10:10:25.119Z,26.80
2022-12-03T10:11:25.142Z,27.10
2022-12-03T10:12:25.098Z,27.80
2022-12-03T10:13:26.040Z,27.90
2022-12-03T10:14:25.124Z,28.10
2022-12-03T10:15:25.046Z,28.80
2022-12-03T10:16:25.107Z,29.70
2022-12-03T10:17:25.059Z,28.70
2022-12-03T10:18:25.051Z,28.90
2022-12-03T10:19:25.027Z,27.90
2022-12-03T10:20:24.986Z,28.10
2022-12-03T10:21:24.997Z,29.50
2022-12-03T10:22:25.088Z,29.30
2022-12-03T10:23:24.956Z,29.20
2022-12-03T10:24:24.967Z,29.10
2022-12-03T10:25:26.012Z,29.50
2022-12-03T10:26:24.939Z,29.60
2022-12-03T10:27:24.945Z,28.50
2022-12-03T10:28:24.933Z,27.20
2022-12-03T10:29:29.875Z,27.80
2022-12-03T10:30:25.909Z,27.40
2022-12-03T10:31:24.950Z,29.20
2022-12-03T10:32:24.865Z,27.50
2022-12-03T10:33:24.855Z,28.60
2022-12-03T10:34:25.594Z,28.20
2022-12-03T10:35:24.867Z,28.50
2022-12-03T10:36:24.826Z,29.00
2022-12-03T10:37:24.830Z,29.30
2022-12-03T10:38:24.898Z,29.50
2022-12-03T10:39:24.811Z,30.00
2022-12-03T10:40:24.796Z,30.90
2022-12-03T10:41:24.778Z,29.70
2022-12-03T10:42:24.813Z,29.30
2022-12-03T10:43:24.789Z,30.00
2022-12-03T10:44:24.782Z,30.20
2022-12-03T10:45:24.804Z,29.20
2022-12-03T10:46:24.814Z,28.40
2022-12-03T10:47:24.826Z,28.80
2022-12-03T10:48:24.727Z,28.10
2022-12-03T10:49:24.714Z,28.10
2022-12-03T10:50:24.710Z,29.70
2022-12-03T10:51:24.681Z,29.00
2022-12-03T10:52:26.154Z,28.50
2022-12-03T10:53:24.642Z,30.00
2022-12-03T10:54:24.615Z,28.40
2022-12-03T10:55:24.610Z,30.00
2022-12-03T10:56:24.630Z,30.40
2022-12-03T10:57:24.580Z,31.30
2022-12-03T10:58:24.586Z,32.50
2022-12-03T10:59:24.563Z,32.30
2022-12-03T11:00:24.539Z,32.50
2022-12-03T11:01:24.624Z,31.00
2022-12-03T11:02:24.539Z,30.60
2022-12-03T11:03:24.601Z,29.90
2022-12-03T11:04:24.538Z,30.00
2022-12-03T11:05:24.539Z,28.80
2022-12-03T11:06:24.488Z,28.20
2022-12-03T11:07:24.658Z,29.00
2022-12-03T11:08:24.488Z,29.50
2022-12-03T11:09:24.456Z,31.30
2022-12-03T11:10:24.505Z,29.80
2022-12-03T11:11:24.449Z,29.20
2022-12-03T11:12:24.430Z,30.00
2022-12-03T11:13:24.443Z,29.20
2022-12-03T11:14:24.426Z,30.10
2022-12-03T11:15:24.445Z,31.60
2022-12-03T11:16:24.452Z,30.60
2022-12-03T11:17:24.445Z,29.90
2022-12-03T11:18:24.385Z,30.10
2022-12-03T11:19:24.363Z,29.90
2022-12-03T11:20:24.411Z,29.00
2022-12-03T11:21:24.382Z,29.40
2022-12-03T11:22:24.334Z,30.60
2022-12-03T11:23:24.340Z,31.10
2022-12-03T11:24:24.316Z,30.40
2022-12-03T11:25:24.312Z,30.60
2022-12-03T11:26:24.310Z,29.10
2022-12-03T11:27:24.321Z,30.40
2022-12-03T11:28:24.284Z,30.40
2022-12-03T11:29:24.273Z,30.60
2022-12-03T11:30:24.264Z,31.20
2022-12-03T11:31:24.289Z,30.00
2022-12-03T11:32:28.018Z,29.60
2022-12-03T11:33:25.211Z,31.30
2022-12-03T11:34:24.263Z,30.50
2022-12-03T11:35:24.208Z,32.70
2022-12-03T11:36:41.996Z,32.10
2022-12-03T11:37:25.186Z,29.70
2022-12-03T11:38:24.221Z,30.90
2022-12-03T11:39:24.157Z,30.80
2022-12-03T11:40:24.202Z,30.30
2022-12-03T11:41:24.143Z,31.80
2022-12-03T11:42:24.217Z,31.50
2022-12-03T11:43:24.091Z,32.20
2022-12-03T11:44:24.092Z,31.80
2022-12-03T11:45:24.102Z,33.40
2022-12-03T11:46:24.151Z,34.40
2022-12-03T11:47:24.051Z,34.30
2022-12-03T11:48:24.062Z,32.70
2022-12-03T11:49:24.049Z,31.60
2022-12-03T11:50:24.029Z,30.30
2022-12-03T11:51:24.117Z,30.20
2022-12-03T11:52:24.051Z,31.40
2022-12-03T11:53:24.030Z,30.50
2022-12-03T11:54:23.999Z,31.30
2022-12-03T11:55:24.051Z,31.70
2022-12-03T11:56:24.008Z,31.50
2022-12-03T11:57:23.955Z,31.20
2022-12-03T11:59:35.649Z,28.80
2022-12-03T12:00:35.315Z,29.90
2022-12-03T12:01:38.550Z,30.00
2022-12-03T12:02:35.062Z,29.50
2022-12-03T12:03:34.992Z,30.00
2022-12-03T12:04:35.090Z,28.80
2022-12-03T12:05:34.864Z,28.70
2022-12-03T12:06:34.859Z,29.90
2022-12-03T12:07:34.896Z,30.70
2022-12-03T12:08:34.811Z,31.90
2022-12-03T12:09:34.811Z,31.40
2022-12-03T12:10:34.790Z,30.00
2022-12-03T12:11:34.805Z,31.90
2022-12-03T12:12:34.848Z,32.00
2022-12-03T12:13:34.824Z,32.20
2022-12-03T12:14:34.739Z,31.60
2022-12-03T12:15:34.765Z,32.60
2022-12-03T12:16:34.786Z,34.10
2022-12-03T12:17:34.716Z,33.80
2022-12-03T12:18:34.712Z,32.60
2022-12-03T12:19:34.711Z,32.60
2022-12-03T12:20:34.677Z,32.40
2022-12-03T12:21:34.706Z,32.60
2022-12-03T12:22:34.681Z,32.20
2022-12-03T12:23:34.671Z,31.10
2022-12-03T12:24:34.703Z,31.80
2022-12-03T12:25:34.664Z,33.60
2022-12-03T12:26:34.700Z,35.40
2022-12-03T12:27:34.614Z,35.60
2022-12-03T12:28:34.640Z,35.80
2022-12-03T12:29:34.595Z,35.20
2022-12-03T12:30:34.569Z,34.40
2022-12-03T12:31:34.640Z,33.60
2022-12-03T12:32:34.546Z,32.10
2022-12-03T12:33:34.582Z,30.60
2022-12-03T12:34:34.557Z,31.80
2022-12-03T12:35:34.541Z,33.60
2022-12-03T12:36:34.627Z,32.30
2022-12-03T12:37:34.493Z,33.80
2022-12-03T12:38:34.507Z,32.50
2022-12-03T12:39:34.515Z,32.50
2022-12-03T12:40:34.501Z,31.50
2022-12-03T12:41:34.493Z,33.50
2022-12-03T12:42:34.463Z,32.80
2022-12-03T12:43:34.465Z,33.10
2022-12-03T12:44:34.519Z,33.60
2022-12-03T12:45:34.451Z,32.60
2022-12-03T12:46:49.909Z,33.60
2022-12-03T12:47:35.502Z,33.50
2022-12-03T12:48:34.396Z,33.40
2022-12-03T12:49:34.422Z,36.50
2022-12-03T12:50:34.384Z,35.40
2022-12-03T12:51:34.372Z,36.60
2022-12-03T12:52:34.382Z,35.10
2022-12-03T12:53:34.357Z,33.70